createdAt,value
2019-04-26T00:01:58.982Z,99.90
2019-04-26T00:04:04.604Z,99.90
2019-04-26T00:06:10.747Z,99.90
2019-04-26T00:08:15.895Z,99.90
2019-04-26T00:10:37.334Z,99.90
2019-04-26T00:13:01.924Z,99.90
2019-04-26T00:15:32.660Z,99.90
2019-04-26T00:17:42.707Z,99.90
2019-04-26T00:19:48.075Z,99.90
2019-04-26T00:21:53.398Z,99.90
2019-04-26T00:23:58.860Z,99.90
2019-04-26T00:26:04.266Z,99.90
2019-04-26T00:28:10.251Z,99.90
2019-04-26T00:30:16.986Z,99.90
2019-04-26T00:32:22.252Z,99.90
2019-04-26T00:34:27.321Z,99.90
2019-04-26T00:36:32.386Z,99.90
2019-04-26T00:38:37.383Z,99.90
2019-04-26T00:40:44.071Z,99.90
2019-04-26T00:42:49.437Z,99.90
2019-04-26T00:44:55.331Z,99.90
2019-04-26T00:47:02.923Z,99.90
2019-04-26T00:49:09.928Z,99.90
2019-04-26T00:51:17.180Z,99.90
2019-04-26T00:53:24.798Z,99.90
2019-04-26T00:55:31.120Z,99.90
2019-04-26T00:57:37.052Z,99.90
2019-04-26T00:59:42.429Z,99.90
2019-04-26T01:01:51.614Z,99.90
2019-04-26T01:03:57.097Z,99.90
2019-04-26T01:06:03.961Z,99.90
2019-04-26T01:08:09.486Z,99.90
2019-04-26T01:10:17.691Z,99.90
2019-04-26T01:12:23.904Z,99.90
2019-04-26T01:14:28.872Z,99.90
2019-04-26T01:16:34.042Z,99.90
2019-04-26T01:18:39.763Z,99.90
2019-04-26T01:20:46.049Z,99.90
2019-04-26T01:22:54.133Z,99.90
2019-04-26T01:25:01.808Z,99.90
2019-04-26T01:27:08.595Z,99.90
2019-04-26T01:29:14.846Z,99.90
2019-04-26T01:31:20.484Z,99.90
2019-04-26T01:33:26.128Z,99.90
2019-04-26T01:35:31.377Z,99.90
2019-04-26T01:37:38.022Z,99.90
2019-04-26T01:39:48.296Z,99.90
2019-04-26T01:42:12.682Z,99.90
2019-04-26T01:44:31.636Z,99.90
2019-04-26T01:46:42.407Z,99.90
2019-04-26T01:49:02.514Z,99.90
2019-04-26T01:51:09.027Z,99.90
2019-04-26T01:53:14.087Z,99.90
2019-04-26T01:55:19.239Z,99.90
2019-04-26T01:57:27.428Z,99.90
2019-04-26T01:59:33.710Z,99.90
2019-04-26T02:01:58.346Z,99.90
2019-04-26T02:04:04.627Z,99.90
2019-04-26T02:06:24.787Z,99.90
2019-04-26T02:08:20.183Z,99.90
2019-04-26T02:10:26.693Z,99.90
2019-04-26T02:12:31.825Z,99.90
2019-04-26T02:14:37.437Z,99.90
2019-04-26T02:16:43.262Z,99.90
2019-04-26T02:18:48.691Z,99.90
2019-04-26T02:21:23.595Z,99.90
2019-04-26T02:23:35.100Z,99.90
2019-04-26T02:25:40.438Z,99.90
2019-04-26T02:27:45.759Z,99.90
2019-04-26T02:29:51.501Z,99.90
2019-04-26T02:32:00.470Z,99.90
2019-04-26T02:34:06.269Z,99.90
2019-04-26T02:36:11.317Z,99.90
2019-04-26T02:38:16.280Z,99.90
2019-04-26T02:40:21.479Z,99.90
2019-04-26T02:42:32.962Z,99.90
2019-04-26T02:44:58.063Z,99.90
2019-04-26T02:48:18.255Z,99.90
2019-04-26T02:50:49.913Z,99.90
2019-04-26T02:53:02.228Z,99.90
2019-04-26T02:55:27.890Z,99.90
2019-04-26T02:57:43.385Z,99.90
2019-04-26T02:59:50.368Z,99.90
2019-04-26T03:01:58.393Z,99.90
2019-04-26T03:04:03.645Z,99.90
2019-04-26T03:06:08.880Z,99.90
2019-04-26T03:08:26.067Z,99.90
2019-04-26T03:10:45.470Z,99.90
2019-04-26T03:12:53.820Z,99.90
2019-04-26T03:15:14.680Z,99.90
2019-04-26T03:17:43.543Z,99.90
2019-04-26T03:20:01.603Z,99.90
2019-04-26T03:22:32.015Z,99.90
2019-04-26T03:24:48.822Z,99.90
2019-04-26T03:27:53.475Z,99.90
2019-04-26T03:30:19.301Z,99.90
2019-04-26T03:33:25.339Z,99.90
2019-04-26T03:35:57.317Z,99.90
2019-04-26T03:38:18.499Z,99.90
2019-04-26T03:40:54.529Z,99.90
2019-04-26T03:43:17.620Z,99.90
2019-04-26T03:45:55.515Z,99.90
2019-04-26T03:48:21.473Z,99.90
2019-04-26T03:50:35.869Z,99.90
2019-04-26T03:53:00.476Z,99.90
2019-04-26T03:55:09.344Z,99.90
2019-04-26T03:57:25.057Z,99.90
2019-04-26T04:00:03.605Z,99.90
2019-04-26T04:02:24.006Z,99.90
2019-04-26T04:04:41.584Z,99.90
2019-04-26T04:06:58.076Z,99.90
2019-04-26T04:09:18.050Z,99.90
2019-04-26T04:11:27.762Z,99.90
2019-04-26T04:13:46.692Z,99.90
2019-04-26T04:15:53.215Z,99.90
2019-04-26T04:18:08.857Z,99.90
2019-04-26T04:20:50.094Z,99.90
2019-04-26T04:23:04.157Z,99.90
2019-04-26T04:25:13.589Z,99.90
2019-04-26T04:27:49.364Z,99.90
2019-04-26T04:30:08.622Z,99.90
2019-04-26T04:32:27.985Z,99.90
2019-04-26T04:34:42.117Z,99.90
2019-04-26T04:36:51.524Z,99.90
2019-04-26T04:39:12.689Z,99.90
2019-04-26T04:41:35.407Z,99.90
2019-04-26T04:43:50.814Z,99.90
2019-04-26T04:47:23.583Z,99.90
2019-04-26T04:49:41.129Z,99.90
2019-04-26T04:52:09.281Z,99.90
2019-04-26T04:54:20.571Z,99.90
2019-04-26T04:57:18.348Z,99.90
2019-04-26T04:59:31.211Z,99.90
2019-04-26T05:02:24.214Z,99.90
2019-04-26T05:04:38.039Z,99.90
2019-04-26T05:07:39.286Z,99.90
2019-04-26T05:10:01.962Z,99.90
2019-04-26T05:12:15.434Z,99.90
2019-04-26T05:14:46.162Z,99.90
2019-04-26T05:17:20.821Z,99.90
2019-04-26T05:19:53.287Z,99.90
2019-04-26T05:22:57.798Z,99.90
2019-04-26T05:25:45.202Z,99.90
2019-04-26T05:28:12.927Z,99.90
2019-04-26T05:31:04.100Z,99.90
2019-04-26T05:33:33.119Z,99.90
2019-04-26T05:36:00.038Z,99.90
2019-04-26T05:38:26.703Z,99.90
2019-04-26T05:41:03.948Z,99.90
2019-04-26T05:43:55.970Z,99.90
2019-04-26T05:49:06.414Z,99.90
2019-04-26T05:51:49.310Z,99.90
2019-04-26T05:54:49.794Z,99.90
2019-04-26T05:57:13.885Z,99.90
2019-04-26T06:00:21.520Z,99.90
2019-04-26T06:03:05.801Z,99.90
2019-04-26T06:05:49.768Z,99.90
2019-04-26T06:08:13.567Z,99.90
2019-04-26T06:10:36.875Z,99.90
2019-04-26T06:12:58.780Z,99.90
2019-04-26T06:15:44.471Z,99.90
2019-04-26T06:18:32.918Z,99.90
2019-04-26T06:20:59.734Z,99.90
2019-04-26T06:23:24.556Z,99.90
2019-04-26T06:25:57.942Z,99.90
2019-04-26T06:28:07.387Z,99.90
2019-04-26T06:30:24.031Z,99.90
2019-04-26T06:32:42.324Z,99.90
2019-04-26T06:35:20.364Z,99.90
2019-04-26T06:37:50.559Z,99.90
2019-04-26T06:40:06.075Z,99.90
2019-04-26T06:43:02.792Z,99.90
2019-04-26T06:46:21.335Z,99.90
2019-04-26T06:49:11.426Z,99.90
2019-04-26T06:51:24.724Z,99.90
2019-04-26T06:53:57.222Z,99.90
2019-04-26T06:56:49.544Z,99.90
2019-04-26T06:59:40.959Z,99.90
2019-04-26T07:02:00.891Z,99.90
2019-04-26T07:04:55.788Z,99.90
2019-04-26T07:07:35.584Z,99.90
2019-04-26T07:09:54.402Z,99.90
2019-04-26T07:12:45.886Z,99.90
2019-04-26T07:15:28.821Z,99.90
2019-04-26T07:18:08.963Z,99.90
2019-04-26T07:20:51.678Z,99.90
2019-04-26T07:23:47.441Z,99.90
2019-04-26T07:26:30.521Z,99.90
2019-04-26T07:29:01.161Z,99.90
2019-04-26T07:31:13.501Z,99.90
2019-04-26T07:34:00.987Z,99.90
2019-04-26T07:36:22.397Z,99.90
2019-04-26T07:39:19.479Z,99.90
2019-04-26T07:42:27.646Z,99.90
2019-04-26T07:45:17.748Z,99.90
2019-04-26T07:48:18.583Z,99.90
2019-04-26T07:50:55.162Z,99.90
2019-04-26T07:53:47.170Z,99.90
2019-04-26T07:56:09.985Z,99.90
2019-04-26T07:59:08.682Z,99.90
2019-04-26T08:01:38.314Z,99.90
2019-04-26T08:03:54.148Z,99.90
2019-04-26T08:06:41.946Z,99.90
2019-04-26T08:08:54.571Z,99.90
2019-04-26T08:11:24.584Z,99.90
2019-04-26T08:13:32.706Z,99.90
2019-04-26T08:16:06.738Z,99.90
2019-04-26T08:18:18.186Z,99.90
2019-04-26T08:20:48.332Z,99.90
2019-04-26T08:22:57.894Z,99.90
2019-04-26T08:25:06.740Z,99.90
2019-04-26T08:27:23.779Z,99.90
2019-04-26T08:29:29.873Z,99.90
2019-04-26T08:31:38.071Z,99.90
2019-04-26T08:33:49.734Z,99.90
2019-04-26T08:35:57.388Z,99.90
2019-04-26T08:38:13.653Z,99.90
2019-04-26T08:40:23.293Z,99.90
2019-04-26T08:42:25.124Z,99.90
2019-04-26T08:44:51.085Z,99.90
2019-04-26T08:47:25.946Z,99.90
2019-04-26T08:49:54.138Z,99.90
2019-04-26T08:52:01.475Z,99.90
2019-04-26T08:54:12.191Z,99.90
2019-04-26T08:56:20.680Z,99.90
2019-04-26T08:58:28.598Z,99.90
2019-04-26T09:00:48.819Z,99.90
2019-04-26T09:03:17.778Z,99.90
2019-04-26T09:06:00.082Z,99.90
2019-04-26T09:08:06.842Z,99.90
2019-04-26T09:10:14.973Z,99.90
2019-04-26T09:12:23.286Z,99.90
2019-04-26T09:14:32.026Z,99.90
2019-04-26T09:16:49.595Z,99.90
2019-04-26T09:18:52.458Z,99.90
2019-04-26T09:20:52.228Z,99.90
2019-04-26T09:23:20.733Z,99.90
2019-04-26T09:25:39.317Z,99.90
2019-04-26T09:27:51.113Z,99.90
2019-04-26T09:30:15.606Z,99.90
2019-04-26T09:32:28.002Z,99.90
2019-04-26T09:34:32.218Z,99.90
2019-04-26T09:36:37.686Z,99.90
2019-04-26T09:38:42.613Z,99.90
2019-04-26T09:40:47.777Z,99.90
2019-04-26T09:43:17.955Z,99.90
2019-04-26T09:45:50.838Z,99.90
2019-04-26T09:48:01.498Z,99.90
2019-04-26T09:50:24.732Z,99.90
2019-04-26T09:52:33.206Z,99.90
2019-04-26T09:54:38.530Z,99.90
2019-04-26T09:56:43.788Z,99.90
2019-04-26T09:58:48.790Z,99.90
2019-04-26T10:00:54.524Z,99.90
2019-04-26T10:03:00.305Z,99.90
2019-04-26T10:05:08.116Z,99.90
2019-04-26T10:07:12.317Z,99.90
2019-04-26T10:09:21.335Z,99.90
2019-04-26T10:11:28.459Z,99.90
2019-04-26T10:14:04.752Z,99.90
2019-04-26T10:16:25.757Z,99.90
2019-04-26T10:18:31.575Z,99.90
2019-04-26T10:20:36.666Z,99.90
2019-04-26T10:22:41.863Z,99.90
2019-04-26T10:24:47.099Z,99.90
2019-04-26T10:26:55.270Z,99.90
2019-04-26T10:28:59.093Z,99.90
2019-04-26T10:31:04.209Z,99.90
2019-04-26T10:33:09.281Z,99.90
2019-04-26T10:35:17.411Z,99.90
2019-04-26T10:37:21.807Z,99.90
2019-04-26T10:39:28.506Z,99.90
2019-04-26T10:41:34.117Z,99.90
2019-04-26T10:43:39.139Z,99.90
2019-04-26T10:45:45.894Z,99.90
2019-04-26T10:47:50.786Z,99.90
2019-04-26T10:49:58.176Z,99.90
2019-04-26T10:52:03.578Z,99.90
2019-04-26T10:54:14.280Z,99.90
2019-04-26T10:56:41.658Z,99.90
2019-04-26T10:59:01.071Z,99.90
2019-04-26T11:01:11.055Z,99.90
2019-04-26T11:03:18.884Z,99.90
2019-04-26T11:05:24.695Z,99.90
2019-04-26T11:07:29.954Z,99.90
2019-04-26T11:09:35.573Z,99.90
2019-04-26T11:11:40.914Z,99.90
2019-04-26T11:13:46.029Z,99.90
2019-04-26T11:15:51.182Z,99.90
2019-04-26T11:17:56.357Z,99.90
2019-04-26T11:20:01.868Z,99.90
2019-04-26T11:22:07.276Z,99.90
2019-04-26T11:24:15.192Z,99.90
2019-04-26T11:26:19.305Z,99.90
2019-04-26T11:28:24.440Z,99.90
2019-04-26T11:30:29.816Z,99.90
2019-04-26T11:32:36.788Z,99.90
2019-04-26T11:34:42.965Z,99.90
2019-04-26T11:36:48.234Z,99.90
2019-04-26T11:38:53.696Z,99.90
2019-04-26T11:41:06.238Z,99.90
2019-04-26T11:43:06.185Z,99.90
2019-04-26T11:45:14.756Z,99.90
2019-04-26T11:47:20.094Z,99.90
2019-04-26T11:49:25.080Z,99.90
2019-04-26T11:51:30.717Z,99.90
2019-04-26T11:53:36.286Z,99.90
2019-04-26T11:55:41.413Z,99.90
2019-04-26T11:57:47.578Z,99.90
2019-04-26T11:59:53.533Z,99.90
2019-04-26T12:01:59.764Z,99.90
2019-04-26T12:04:17.903Z,99.90
2019-04-26T12:06:41.883Z,99.90
2019-04-26T12:08:54.800Z,99.90
2019-04-26T12:10:59.768Z,99.90
2019-04-26T12:13:06.533Z,99.90
2019-04-26T12:15:12.337Z,99.90
2019-04-26T12:17:17.653Z,99.90
2019-04-26T12:19:23.110Z,99.90
2019-04-26T12:21:30.514Z,99.90
2019-04-26T12:23:37.184Z,99.90
2019-04-26T12:25:43.569Z,99.90
2019-04-26T12:27:53.317Z,99.90
2019-04-26T12:29:57.468Z,99.90
2019-04-26T12:32:03.582Z,99.90
2019-04-26T12:34:09.381Z,99.90
2019-04-26T12:36:15.375Z,99.90
2019-04-26T12:38:23.962Z,99.90
2019-04-26T12:40:27.489Z,99.10
2019-04-26T12:42:34.150Z,98.90
2019-04-26T12:44:59.648Z,99.00
2019-04-26T12:47:13.589Z,99.60
2019-04-26T12:49:20.407Z,99.60
2019-04-26T12:51:26.071Z,99.40
2019-04-26T12:53:32.950Z,99.20
2019-04-26T12:55:37.960Z,98.70
2019-04-26T12:57:43.003Z,98.60
2019-04-26T12:59:48.203Z,98.80
2019-04-26T13:02:04.941Z,98.40
2019-04-26T13:04:09.815Z,98.00
2019-04-26T13:06:16.490Z,97.40
2019-04-26T13:08:21.562Z,98.00
2019-04-26T13:10:51.946Z,98.10
2019-04-26T13:13:19.772Z,98.10
2019-04-26T13:16:02.941Z,97.50
2019-04-26T13:18:11.233Z,97.20
2019-04-26T13:20:14.608Z,96.70
2019-04-26T13:22:19.453Z,96.10
2019-04-26T13:24:24.759Z,96.10
2019-04-26T13:26:30.315Z,97.00
2019-04-26T13:28:36.664Z,96.90
2019-04-26T13:30:43.699Z,96.20
2019-04-26T13:32:49.308Z,96.60
2019-04-26T13:34:58.732Z,96.40
2019-04-26T13:37:04.067Z,96.70
2019-04-26T13:39:13.551Z,96.30
2019-04-26T13:41:18.965Z,96.60
2019-04-26T13:43:27.058Z,95.50
2019-04-26T13:45:41.415Z,95.30
2019-04-26T13:48:07.811Z,94.80
2019-04-26T13:50:22.379Z,95.20
2019-04-26T13:52:25.900Z,94.90
2019-04-26T13:54:30.546Z,94.60
2019-04-26T13:56:36.006Z,93.60
2019-04-26T13:58:43.476Z,92.90
2019-04-26T14:00:48.282Z,93.10
2019-04-26T14:02:53.377Z,93.30
2019-04-26T14:04:58.370Z,93.50
2019-04-26T14:07:03.415Z,94.00
2019-04-26T14:09:10.720Z,94.20
2019-04-26T14:11:15.815Z,94.60
2019-04-26T14:13:24.830Z,94.60
2019-04-26T14:15:27.247Z,94.40
2019-04-26T14:17:32.142Z,93.40
2019-04-26T14:19:36.953Z,93.80
2019-04-26T14:21:41.684Z,93.40
2019-04-26T14:24:03.656Z,93.70
2019-04-26T14:26:14.022Z,93.90
2019-04-26T14:28:20.361Z,94.00
2019-04-26T14:30:26.486Z,94.30
2019-04-26T14:32:31.590Z,93.90
2019-04-26T14:34:40.357Z,93.40
2019-04-26T14:36:44.993Z,93.10
2019-04-26T14:38:50.109Z,92.10
2019-04-26T14:41:03.746Z,92.50
2019-04-26T14:43:06.837Z,92.30
2019-04-26T14:45:22.378Z,92.30
2019-04-26T14:47:17.983Z,92.50
2019-04-26T14:49:23.458Z,92.50
2019-04-26T14:51:28.838Z,92.10
2019-04-26T14:53:36.353Z,92.40
2019-04-26T14:55:40.498Z,92.20
2019-04-26T14:57:46.851Z,90.90
2019-04-26T14:59:59.338Z,91.20
2019-04-26T15:02:28.999Z,90.90
2019-04-26T15:04:43.110Z,91.80
2019-04-26T15:06:52.032Z,91.30
2019-04-26T15:08:54.457Z,91.40
2019-04-26T15:11:01.171Z,91.30
2019-04-26T15:13:17.023Z,91.10
2019-04-26T15:15:13.141Z,91.20
2019-04-26T15:17:20.106Z,91.80
2019-04-26T15:19:25.018Z,91.30
2019-04-26T15:21:31.780Z,91.30
2019-04-26T15:23:36.696Z,90.60
2019-04-26T15:25:47.913Z,91.40
2019-04-26T15:27:47.806Z,91.00
2019-04-26T15:29:52.695Z,90.50
2019-04-26T15:31:58.348Z,90.10
2019-04-26T15:34:03.471Z,88.80
2019-04-26T15:36:11.126Z,88.70
2019-04-26T15:38:14.472Z,89.60
2019-04-26T15:40:51.734Z,87.60
2019-04-26T15:43:04.792Z,87.30
2019-04-26T15:45:25.188Z,86.50
2019-04-26T15:47:47.951Z,86.40
2019-04-26T15:50:10.030Z,86.50
2019-04-26T15:52:13.618Z,85.00
2019-04-26T15:54:21.655Z,86.50
2019-04-26T15:56:24.655Z,87.50
2019-04-26T15:58:29.386Z,88.60
2019-04-26T16:00:35.415Z,88.40
2019-04-26T16:02:43.934Z,86.20
2019-04-26T16:04:51.410Z,87.40
2019-04-26T16:06:57.869Z,85.80
2019-04-26T16:09:02.823Z,87.30
2019-04-26T16:11:11.361Z,87.00
2019-04-26T16:13:20.978Z,87.40
2019-04-26T16:15:20.508Z,87.20
2019-04-26T16:17:25.956Z,87.90
2019-04-26T16:19:31.143Z,88.60
2019-04-26T16:21:35.841Z,88.00
2019-04-26T16:23:43.207Z,86.70
2019-04-26T16:25:47.021Z,86.70
2019-04-26T16:28:12.567Z,86.40
2019-04-26T16:30:28.490Z,86.60
2019-04-26T16:32:58.669Z,87.30
2019-04-26T16:35:00.421Z,87.50
2019-04-26T16:37:09.404Z,88.60
2019-04-26T16:39:13.115Z,88.50
2019-04-26T16:41:21.852Z,87.00
2019-04-26T16:43:36.587Z,87.20
2019-04-26T16:45:32.826Z,87.60
2019-04-26T16:47:45.076Z,87.30
2019-04-26T16:49:46.583Z,87.70
2019-04-26T16:52:01.507Z,87.40
2019-04-26T16:54:06.619Z,88.30
2019-04-26T16:56:04.673Z,88.70
2019-04-26T16:58:09.513Z,88.90
2019-04-26T17:00:16.465Z,89.20
2019-04-26T17:02:26.194Z,87.90
2019-04-26T17:04:32.071Z,88.20
2019-04-26T17:06:44.259Z,88.80
2019-04-26T17:08:49.310Z,86.70
2019-04-26T17:10:50.053Z,87.20
2019-04-26T17:12:55.165Z,87.30
2019-04-26T17:15:00.376Z,86.20
2019-04-26T17:17:07.430Z,86.80
2019-04-26T17:19:13.783Z,87.10
2019-04-26T17:21:22.286Z,87.50
2019-04-26T17:23:47.507Z,89.00
2019-04-26T17:26:05.877Z,89.20
2019-04-26T17:28:11.925Z,89.60
2019-04-26T17:30:21.816Z,89.20
2019-04-26T17:32:26.719Z,89.90
2019-04-26T17:34:33.536Z,90.50
2019-04-26T17:36:38.343Z,90.30
2019-04-26T17:38:44.174Z,89.30
2019-04-26T17:40:50.476Z,90.30
2019-04-26T17:42:55.577Z,90.50
2019-04-26T17:45:03.847Z,91.10
2019-04-26T17:47:08.499Z,91.30
2019-04-26T17:49:13.538Z,90.80
2019-04-26T17:51:20.738Z,90.90
2019-04-26T17:53:28.788Z,90.70
2019-04-26T17:55:33.720Z,91.20
2019-04-26T17:57:43.565Z,91.40
2019-04-26T17:59:49.007Z,91.40
2019-04-26T18:02:00.867Z,91.00
2019-04-26T18:04:00.268Z,91.70
2019-04-26T18:06:09.576Z,91.60
2019-04-26T18:08:33.802Z,92.20
2019-04-26T18:10:19.027Z,92.20
2019-04-26T18:12:24.046Z,91.80
2019-04-26T18:14:30.667Z,92.20
2019-04-26T18:16:36.831Z,92.60
2019-04-26T18:18:57.882Z,93.10
2019-04-26T18:21:22.919Z,94.30
2019-04-26T18:23:30.415Z,94.50
2019-04-26T18:25:35.532Z,95.00
2019-04-26T18:27:43.519Z,95.50
2019-04-26T18:29:48.413Z,95.70
2019-04-26T18:31:54.489Z,96.00
2019-04-26T18:34:00.874Z,95.80
2019-04-26T18:36:06.387Z,96.00
2019-04-26T18:38:13.470Z,95.70
2019-04-26T18:40:20.579Z,96.20
2019-04-26T18:42:27.092Z,96.60
2019-04-26T18:44:36.828Z,97.00
2019-04-26T18:46:59.148Z,96.80
2019-04-26T18:49:04.631Z,97.00
2019-04-26T18:51:11.213Z,97.60
2019-04-26T18:53:43.811Z,97.80
2019-04-26T18:55:49.567Z,98.00
2019-04-26T18:58:01.486Z,98.20
2019-04-26T19:00:03.825Z,98.40
2019-04-26T19:02:11.522Z,98.60
2019-04-26T19:04:16.249Z,98.90
2019-04-26T19:06:31.020Z,99.10
2019-04-26T19:08:29.131Z,99.10
2019-04-26T19:10:34.712Z,99.40
2019-04-26T19:12:41.194Z,99.80
2019-04-26T19:15:07.485Z,99.80
2019-04-26T19:17:39.226Z,99.90
2019-04-26T19:20:02.994Z,99.90
2019-04-26T19:22:09.384Z,99.90
2019-04-26T19:24:19.581Z,99.90
2019-04-26T19:26:31.973Z,99.90
2019-04-26T19:28:28.758Z,99.90
2019-04-26T19:30:34.175Z,99.90
2019-04-26T19:32:39.576Z,99.90
2019-04-26T19:34:46.069Z,99.90
2019-04-26T19:36:52.450Z,99.90
2019-04-26T19:38:57.611Z,99.90
2019-04-26T19:41:03.051Z,99.90
2019-04-26T19:43:09.410Z,99.90
2019-04-26T19:45:24.777Z,99.90
2019-04-26T19:47:39.530Z,99.90
2019-04-26T19:50:09.474Z,99.90
2019-04-26T19:52:22.284Z,99.90
2019-04-26T19:54:41.674Z,99.90
2019-04-26T19:57:11.853Z,99.90
2019-04-26T19:59:16.877Z,99.90
2019-04-26T20:01:24.810Z,99.90
2019-04-26T20:03:29.077Z,99.90
2019-04-26T20:05:36.297Z,99.90
2019-04-26T20:07:41.642Z,99.90
2019-04-26T20:09:46.913Z,99.90
2019-04-26T20:11:58.123Z,99.90
2019-04-26T20:14:01.164Z,99.90
2019-04-26T20:16:06.557Z,99.90
2019-04-26T20:18:12.343Z,99.90
2019-04-26T20:20:21.480Z,99.90
2019-04-26T20:22:28.244Z,99.90
2019-04-26T20:24:31.067Z,99.90
2019-04-26T20:26:37.468Z,99.90
2019-04-26T20:28:42.925Z,99.90
2019-04-26T20:31:05.893Z,99.90
2019-04-26T20:33:08.404Z,99.90
2019-04-26T20:35:19.654Z,99.90
2019-04-26T20:37:41.544Z,99.90
2019-04-26T20:40:17.625Z,99.90
2019-04-26T20:42:08.132Z,99.90
2019-04-26T20:44:13.461Z,99.90
2019-04-26T20:46:18.275Z,99.90
2019-04-26T20:48:25.632Z,99.90
2019-04-26T20:50:35.282Z,99.90
2019-04-26T20:52:37.339Z,99.90
2019-04-26T20:54:42.374Z,99.90
2019-04-26T20:56:52.640Z,99.90
2019-04-26T20:58:54.394Z,99.90
2019-04-26T21:00:59.069Z,99.90
2019-04-26T21:03:06.026Z,99.90
2019-04-26T21:05:14.519Z,99.90
2019-04-26T21:07:17.261Z,99.90
2019-04-26T21:09:22.716Z,99.90
2019-04-26T21:11:30.251Z,99.90
2019-04-26T21:13:34.281Z,99.90
2019-04-26T21:15:51.859Z,99.90
2019-04-26T21:17:45.512Z,99.90
2019-04-26T21:19:54.937Z,99.90
2019-04-26T21:21:57.197Z,99.90
2019-04-26T21:24:05.532Z,99.90
2019-04-26T21:26:32.274Z,99.90
2019-04-26T21:29:15.456Z,99.90
2019-04-26T21:31:28.581Z,99.90
2019-04-26T21:33:43.056Z,99.90
2019-04-26T21:36:09.385Z,99.90
2019-04-26T21:38:20.555Z,99.90
2019-04-26T21:40:34.438Z,99.90
2019-04-26T21:42:39.233Z,99.90
2019-04-26T21:44:44.604Z,99.90
2019-04-26T21:46:56.168Z,99.90
2019-04-26T21:48:56.838Z,99.90
2019-04-26T21:51:03.129Z,99.90
2019-04-26T21:53:08.008Z,99.90
2019-04-26T21:55:13.130Z,99.90
2019-04-26T21:57:18.284Z,99.90
2019-04-26T21:59:24.454Z,99.90
2019-04-26T22:01:29.916Z,99.90
2019-04-26T22:03:34.855Z,99.90
2019-04-26T22:05:39.581Z,99.90
2019-04-26T22:07:47.667Z,99.90
2019-04-26T22:10:09.401Z,99.90
2019-04-26T22:12:15.164Z,99.90
2019-04-26T22:14:24.006Z,99.90
2019-04-26T22:16:50.716Z,99.90
2019-04-26T22:19:14.642Z,99.90
2019-04-26T22:21:30.067Z,99.90
2019-04-26T22:23:51.789Z,99.90
2019-04-26T22:26:00.274Z,99.90
2019-04-26T22:28:04.610Z,99.90
2019-04-26T22:30:14.498Z,99.90
2019-04-26T22:32:19.699Z,99.90
2019-04-26T22:34:24.361Z,99.90
2019-04-26T22:36:30.885Z,99.90
2019-04-26T22:38:36.120Z,99.90
2019-04-26T22:40:41.198Z,99.90
2019-04-26T22:42:47.978Z,99.90
2019-04-26T22:45:02.676Z,99.90
2019-04-26T22:47:27.063Z,99.90
2019-04-26T22:49:35.044Z,99.90
2019-04-26T22:51:38.135Z,99.90
2019-04-26T22:53:43.394Z,99.90
2019-04-26T22:55:48.627Z,99.90
2019-04-26T22:57:53.357Z,99.90
2019-04-26T22:59:58.497Z,99.90
2019-04-26T23:02:04.636Z,99.90
2019-04-26T23:04:09.610Z,99.90
2019-04-26T23:06:15.343Z,99.90
2019-04-26T23:08:20.234Z,99.90
2019-04-26T23:10:31.132Z,99.90
2019-04-26T23:12:58.050Z,99.90
2019-04-26T23:15:24.016Z,99.90
2019-04-26T23:17:51.084Z,99.90
2019-04-26T23:20:09.338Z,99.90
2019-04-26T23:22:14.499Z,99.90
2019-04-26T23:24:19.233Z,99.90
2019-04-26T23:26:24.289Z,99.90
2019-04-26T23:28:34.052Z,99.90
2019-04-26T23:30:35.795Z,99.90
2019-04-26T23:32:40.755Z,99.90
2019-04-26T23:34:45.929Z,99.90
2019-04-26T23:36:50.654Z,99.90
2019-04-26T23:38:55.805Z,99.90
2019-04-26T23:41:04.568Z,99.90
2019-04-26T23:43:07.548Z,99.90
2019-04-26T23:45:14.400Z,99.90
2019-04-26T23:47:23.006Z,99.90
2019-04-26T23:49:25.848Z,99.90
2019-04-26T23:51:30.564Z,99.90
2019-04-26T23:53:35.929Z,99.90
2019-04-26T23:55:42.491Z,99.90
2019-04-26T23:57:47.478Z,99.90
2019-04-26T23:59:58.617Z,99.90
